Terminal Aerodrome Forecast
Issued by NWS Cleveland, OH

Home | Current Version | Previous Version | Text Only | Print | Product List | Glossary On
Versions: 1 2 3 4 5 6 7 8 9 10 11 12 13
086
FTUS41 KCLE 301129
TAFTOL
TAF
KTOL 301129Z 3012/3112 25004KT P6SM SCT250
     FM301430 27006KT P6SM SCT030 BKN250
     FM301600 29008KT P6SM SCT050
     FM302300 32004KT P6SM SCT250=

USA.gov is the U.S. government's official web portal to all federal, state and local government web resources and services.